createdAt,value
2018-04-14T00:02:11.866Z,10.40
2018-04-14T00:04:40.345Z,10.37
2018-04-14T00:07:08.830Z,10.33
2018-04-14T00:09:37.318Z,10.13
2018-04-14T00:12:05.813Z,10.67
2018-04-14T00:14:33.965Z,9.40
2018-04-14T00:17:02.436Z,9.90
2018-04-14T00:19:31.025Z,11.23
2018-04-14T00:21:59.533Z,10.00
2018-04-14T00:24:28.040Z,10.27
2018-04-14T00:26:57.452Z,13.90
2018-04-14T00:29:26.761Z,11.73
2018-04-14T00:31:56.007Z,11.03
2018-04-14T00:34:24.502Z,11.90
2018-04-14T00:36:53.000Z,13.30
2018-04-14T00:39:21.363Z,12.90
2018-04-14T00:41:50.020Z,11.77
2018-04-14T00:44:18.615Z,11.70
2018-04-14T00:46:47.202Z,12.30
2018-04-14T00:49:15.693Z,11.93
2018-04-14T00:51:44.184Z,13.67
2018-04-14T00:54:12.545Z,12.67
2018-04-14T00:56:41.049Z,11.87
2018-04-14T00:59:09.536Z,13.30
2018-04-14T01:01:38.026Z,11.07
2018-04-14T01:04:06.506Z,11.67
2018-04-14T01:06:34.997Z,13.13
2018-04-14T01:09:03.133Z,13.57
2018-04-14T01:11:31.692Z,13.70
2018-04-14T01:14:00.182Z,11.70
2018-04-14T01:16:28.381Z,12.17
2018-04-14T01:18:56.880Z,11.70
2018-04-14T01:21:25.353Z,12.47
2018-04-14T01:23:54.025Z,14.60
2018-04-14T01:26:22.506Z,11.87
2018-04-14T01:28:51.005Z,11.70
2018-04-14T01:31:19.576Z,11.87
2018-04-14T01:33:48.076Z,11.73
2018-04-14T01:36:16.557Z,13.20
2018-04-14T01:38:45.129Z,13.43
2018-04-14T01:41:13.301Z,12.30
2018-04-14T01:43:41.870Z,12.93
2018-04-14T01:46:10.456Z,12.37
2018-04-14T01:48:38.942Z,13.23
2018-04-14T01:51:07.648Z,13.20
2018-04-14T01:53:36.128Z,12.47
2018-04-14T01:56:04.608Z,12.83
2018-04-14T01:58:33.089Z,15.40
2018-04-14T02:01:01.578Z,12.40
2018-04-14T02:03:30.150Z,12.77
2018-04-14T02:05:58.644Z,13.97
2018-04-14T02:08:27.105Z,13.70
2018-04-14T02:10:55.647Z,13.73
2018-04-14T02:13:24.150Z,14.27
2018-04-14T02:15:53.460Z,13.17
2018-04-14T02:18:22.698Z,14.67
2018-04-14T02:20:51.176Z,14.93
2018-04-14T02:23:19.318Z,14.40
2018-04-14T02:25:48.548Z,14.53
2018-04-14T02:28:17.056Z,13.97
2018-04-14T02:30:45.608Z,13.73
2018-04-14T02:33:14.097Z,14.70
2018-04-14T02:35:42.689Z,15.43
2018-04-14T02:38:11.269Z,13.80
2018-04-14T02:40:39.740Z,13.60
2018-04-14T02:43:08.282Z,12.63
2018-04-14T02:45:36.832Z,15.40
2018-04-14T02:48:05.305Z,13.50
2018-04-14T02:50:33.937Z,13.13
2018-04-14T02:53:03.283Z,13.13
2018-04-14T02:55:31.778Z,13.97
2018-04-14T02:58:00.451Z,15.20
2018-04-14T03:00:28.949Z,15.07
2018-04-14T03:02:57.429Z,15.20
2018-04-14T03:05:25.995Z,14.50
2018-04-14T03:07:54.461Z,14.97
2018-04-14T03:10:23.754Z,16.37
2018-04-14T03:12:52.488Z,16.00
2018-04-14T03:15:21.005Z,15.03
2018-04-14T03:17:49.549Z,14.23
2018-04-14T03:20:18.101Z,12.53
2018-04-14T03:22:46.680Z,13.50
2018-04-14T03:25:15.704Z,12.97
2018-04-14T03:27:44.209Z,12.70
2018-04-14T03:30:12.472Z,12.23
2018-04-14T03:32:40.976Z,12.17
2018-04-14T03:35:09.446Z,12.20
2018-04-14T03:37:37.945Z,13.10
2018-04-14T03:40:06.413Z,13.80
2018-04-14T03:42:34.989Z,12.87
2018-04-14T03:45:03.458Z,12.33
2018-04-14T03:47:32.114Z,13.77
2018-04-14T03:50:01.129Z,12.53
2018-04-14T03:52:29.618Z,10.53
2018-04-14T03:54:58.086Z,10.43
2018-04-14T03:57:27.332Z,10.67
2018-04-14T03:59:55.813Z,11.00
2018-04-14T04:02:24.377Z,11.80
2018-04-14T04:04:52.852Z,11.20
2018-04-14T04:07:20.989Z,11.63
2018-04-14T04:09:49.773Z,10.93
2018-04-14T04:12:18.249Z,10.00
2018-04-14T04:14:46.736Z,10.90
2018-04-14T04:17:15.197Z,10.97
2018-04-14T04:19:54.626Z,12.67
2018-04-14T04:22:45.315Z,11.43
2018-04-14T04:25:19.028Z,12.37
2018-04-14T04:27:47.509Z,9.87
2018-04-14T04:30:15.997Z,12.23
2018-04-14T04:32:44.263Z,12.07
2018-04-14T04:35:12.744Z,12.00
2018-04-14T04:37:41.285Z,12.00
2018-04-14T04:40:10.532Z,11.60
2018-04-14T04:42:39.161Z,12.30
2018-04-14T04:45:07.753Z,12.77
2018-04-14T04:47:36.402Z,12.43
2018-04-14T04:50:04.881Z,11.93
2018-04-14T04:52:33.365Z,10.50
2018-04-14T04:55:01.856Z,11.00
2018-04-14T04:57:30.325Z,12.47
2018-04-14T04:59:58.837Z,11.97
2018-04-14T05:02:27.088Z,12.30
2018-04-14T05:04:55.573Z,12.37
2018-04-14T05:07:24.055Z,13.00
2018-04-14T05:09:52.562Z,11.20
2018-04-14T05:12:21.031Z,15.50
2018-04-14T05:14:49.550Z,16.10
2018-04-14T05:17:18.804Z,16.50
2018-04-14T05:19:47.282Z,14.17
2018-04-14T05:22:16.020Z,17.07
2018-04-14T05:24:44.766Z,16.60
2018-04-14T05:27:13.441Z,16.43
2018-04-14T05:29:41.950Z,11.97
2018-04-14T05:32:10.450Z,12.07
2018-04-14T05:34:39.097Z,10.93
2018-04-14T05:37:07.652Z,10.90
2018-04-14T05:39:36.124Z,10.57
2018-04-14T05:42:05.517Z,11.23
2018-04-14T05:44:34.025Z,12.37
2018-04-14T05:47:02.569Z,12.97
2018-04-14T05:49:31.172Z,13.77
2018-04-14T05:52:00.198Z,17.33
2018-04-14T05:54:28.750Z,18.30
2018-04-14T05:56:58.229Z,11.47
2018-04-14T05:59:27.476Z,12.10
2018-04-14T06:01:56.747Z,17.47
2018-04-14T06:04:25.833Z,15.07
2018-04-14T06:06:54.874Z,14.80
2018-04-14T06:09:23.992Z,21.80
2018-04-14T06:11:53.897Z,18.23
2018-04-14T06:14:23.716Z,27.50
2018-04-14T06:16:52.726Z,19.40
2018-04-14T06:19:21.301Z,20.90
2018-04-14T06:21:49.806Z,17.67
2018-04-14T06:24:18.319Z,18.40
2018-04-14T06:26:46.797Z,18.00
2018-04-14T06:29:15.276Z,17.43
2018-04-14T06:31:43.781Z,17.90
2018-04-14T06:34:13.017Z,16.60
2018-04-14T06:36:41.501Z,15.20
2018-04-14T06:39:10.148Z,20.20
2018-04-14T06:41:39.278Z,17.50
2018-04-14T06:44:07.784Z,18.87
2018-04-14T06:46:36.454Z,14.37
2018-04-14T06:49:04.956Z,14.30
2018-04-14T06:51:33.497Z,12.70
2018-04-14T06:54:02.006Z,11.33
2018-04-14T06:56:30.494Z,11.27
2018-04-14T06:58:58.973Z,11.57
2018-04-14T07:01:27.465Z,11.07
2018-04-14T07:03:55.972Z,7.90
2018-04-14T07:06:24.460Z,6.17
2018-04-14T07:08:52.929Z,5.37
2018-04-14T07:11:21.473Z,6.13
2018-04-14T07:13:49.705Z,4.83
2018-04-14T07:16:19.236Z,7.63
2018-04-14T07:18:48.646Z,3.60
2018-04-14T07:21:17.921Z,3.00
2018-04-14T07:23:46.409Z,3.50
2018-04-14T07:26:15.658Z,3.47
2018-04-14T07:28:44.150Z,2.90
2018-04-14T07:31:12.622Z,4.30
2018-04-14T07:33:41.136Z,3.43
2018-04-14T07:36:09.618Z,2.80
2018-04-14T07:38:38.250Z,2.83
2018-04-14T07:41:06.766Z,3.53
2018-04-14T07:43:35.240Z,3.20
2018-04-14T07:46:03.734Z,5.43
2018-04-14T07:48:32.213Z,3.13
2018-04-14T07:51:00.692Z,3.07
2018-04-14T07:53:29.236Z,3.27
2018-04-14T07:55:58.742Z,4.80
2018-04-14T07:58:27.753Z,2.90
2018-04-14T08:00:56.252Z,3.30
2018-04-14T08:03:24.506Z,3.10
2018-04-14T08:05:54.090Z,2.10
2018-04-14T08:08:22.602Z,2.53
2018-04-14T08:10:51.925Z,2.60
2018-04-14T08:13:20.407Z,2.23
2018-04-14T08:15:48.913Z,2.07
2018-04-14T08:18:17.444Z,2.17
2018-04-14T08:20:46.062Z,2.40
2018-04-14T08:23:15.225Z,2.50
2018-04-14T08:25:44.470Z,2.73
2018-04-14T08:28:12.970Z,2.63
2018-04-14T08:30:41.690Z,2.87
2018-04-14T08:33:10.724Z,2.50
2018-04-14T08:35:39.244Z,2.60
2018-04-14T08:38:07.721Z,2.30
2018-04-14T08:40:36.278Z,2.13
2018-04-14T08:43:04.749Z,1.93
2018-04-14T08:45:33.249Z,2.40
2018-04-14T08:48:01.748Z,3.70
2018-04-14T08:50:30.010Z,3.10
2018-04-14T08:52:58.491Z,4.20
2018-04-14T08:55:26.981Z,3.77
2018-04-14T08:57:55.445Z,2.73
2018-04-14T09:00:23.967Z,2.43
2018-04-14T09:02:53.196Z,2.87
2018-04-14T09:05:22.533Z,3.00
2018-04-14T09:07:50.997Z,2.67
2018-04-14T09:10:19.596Z,3.63
2018-04-14T09:12:48.087Z,3.53
2018-04-14T09:15:16.236Z,3.03
2018-04-14T09:17:44.745Z,4.13
2018-04-14T09:20:12.977Z,3.50
2018-04-14T09:22:42.230Z,6.03
2018-04-14T09:25:10.705Z,4.90
2018-04-14T09:27:39.214Z,4.23
2018-04-14T09:30:07.733Z,4.40
2018-04-14T09:32:37.001Z,3.87
2018-04-14T09:35:05.501Z,3.97
2018-04-14T09:37:34.005Z,4.43
2018-04-14T09:40:03.436Z,4.63
2018-04-14T09:42:31.953Z,3.73
2018-04-14T09:45:00.454Z,3.13
2018-04-14T09:47:28.717Z,3.10
2018-04-14T09:49:57.364Z,3.23
2018-04-14T09:52:25.917Z,2.50
2018-04-14T09:54:55.173Z,3.00
2018-04-14T09:57:23.637Z,3.20
2018-04-14T09:59:52.148Z,3.00
2018-04-14T10:02:21.360Z,4.87
2018-04-14T10:04:49.901Z,2.50
2018-04-14T10:07:18.426Z,2.57
2018-04-14T10:09:46.933Z,2.70
2018-04-14T10:12:15.506Z,2.57
2018-04-14T10:14:43.992Z,2.60
2018-04-14T10:17:12.479Z,3.07
2018-04-14T10:19:41.881Z,2.60
2018-04-14T10:22:11.102Z,2.80
2018-04-14T10:24:39.613Z,1.93
2018-04-14T10:27:08.123Z,2.40
2018-04-14T10:29:36.777Z,2.40
2018-04-14T10:32:05.261Z,3.00
2018-04-14T10:34:33.750Z,2.20
2018-04-14T10:37:02.377Z,2.40
2018-04-14T10:39:30.983Z,1.90
2018-04-14T10:42:00.312Z,2.40
2018-04-14T10:44:28.807Z,1.87
2018-04-14T10:46:57.297Z,3.00
2018-04-14T10:49:25.757Z,2.20
2018-04-14T10:51:54.319Z,2.13
2018-04-14T10:54:23.592Z,2.13
2018-04-14T10:56:51.874Z,2.03
2018-04-14T10:59:20.372Z,2.40
2018-04-14T11:01:49.638Z,2.30
2018-04-14T11:04:18.141Z,2.00
2018-04-14T11:06:46.621Z,2.20
2018-04-14T11:09:15.190Z,2.70
2018-04-14T11:11:43.661Z,5.57
2018-04-14T11:14:12.153Z,2.27
2018-04-14T11:16:40.741Z,2.40
2018-04-14T11:19:09.237Z,1.90
2018-04-14T11:21:37.578Z,2.00
2018-04-14T11:24:06.057Z,2.10
2018-04-14T11:26:34.758Z,2.90
2018-04-14T11:29:03.245Z,2.67
2018-04-14T11:31:31.737Z,6.20
2018-04-14T11:34:00.381Z,3.00
2018-04-14T11:36:28.966Z,3.40
2018-04-14T11:38:57.436Z,4.03
2018-04-14T11:41:26.761Z,4.57
2018-04-14T11:43:55.269Z,2.17
2018-04-14T11:46:24.532Z,2.53
2018-04-14T11:48:53.182Z,1.70
2018-04-14T11:51:21.868Z,1.90
2018-04-14T11:53:50.342Z,2.00
2018-04-14T11:56:18.847Z,2.17
2018-04-14T11:58:48.453Z,2.33
2018-04-14T12:01:17.737Z,1.93
2018-04-14T12:03:46.318Z,2.20
2018-04-14T12:06:15.721Z,2.03
2018-04-14T12:08:44.192Z,1.67
2018-04-14T12:11:12.861Z,4.60
2018-04-14T12:13:41.437Z,1.67
2018-04-14T12:16:09.929Z,1.50
2018-04-14T12:18:39.444Z,1.70
2018-04-14T12:21:07.953Z,1.80
2018-04-14T12:23:36.504Z,2.00
2018-04-14T12:26:04.977Z,1.40
2018-04-14T12:28:33.572Z,1.60
2018-04-14T12:31:02.045Z,1.33
2018-04-14T12:33:30.316Z,1.30
2018-04-14T12:35:58.881Z,1.30
2018-04-14T12:38:28.127Z,1.40
2018-04-14T12:40:56.754Z,1.50
2018-04-14T12:43:26.012Z,1.80
2018-04-14T12:45:54.503Z,4.50
2018-04-14T12:48:22.635Z,1.40
2018-04-14T12:50:51.140Z,1.90
2018-04-14T12:53:19.712Z,1.97
2018-04-14T12:55:48.250Z,1.60
2018-04-14T12:58:16.785Z,2.50
2018-04-14T13:00:45.284Z,9.40
2018-04-14T13:03:13.756Z,1.23
2018-04-14T13:05:42.290Z,1.07
2018-04-14T13:08:10.941Z,1.63
2018-04-14T13:10:39.612Z,0.90
2018-04-14T13:13:08.105Z,5.30
2018-04-14T13:15:36.773Z,5.33
2018-04-14T13:18:05.297Z,1.03
2018-04-14T13:20:33.773Z,0.70
2018-04-14T13:23:02.270Z,2.70
2018-04-14T13:25:30.749Z,2.60
2018-04-14T13:27:59.298Z,0.87
2018-04-14T13:30:28.082Z,2.30
2018-04-14T13:32:56.585Z,0.87
2018-04-14T13:35:25.194Z,1.13
2018-04-14T13:37:53.737Z,1.10
2018-04-14T13:40:22.205Z,1.10
2018-04-14T13:42:50.701Z,1.30
2018-04-14T13:45:20.203Z,2.70
2018-04-14T13:47:48.689Z,1.10
2018-04-14T13:50:17.214Z,1.13
2018-04-14T13:52:47.194Z,0.80
2018-04-14T13:55:15.881Z,1.30
2018-04-14T13:57:44.389Z,1.73
2018-04-14T14:00:13.006Z,1.60
2018-04-14T14:02:41.589Z,1.33
2018-04-14T14:05:10.860Z,5.57
2018-04-14T14:07:39.322Z,1.67
2018-04-14T14:10:07.817Z,2.97
2018-04-14T14:12:36.309Z,2.20
2018-04-14T14:15:04.460Z,0.93
2018-04-14T14:17:32.759Z,1.00
2018-04-14T14:20:01.324Z,2.70
2018-04-14T14:22:29.806Z,0.90
2018-04-14T14:25:02.950Z,1.00
2018-04-14T14:27:32.580Z,1.00
2018-04-14T14:30:01.163Z,2.23
2018-04-14T14:32:30.409Z,4.83
2018-04-14T14:34:58.917Z,1.80
2018-04-14T14:37:27.401Z,1.10
2018-04-14T14:39:57.638Z,2.10
2018-04-14T14:42:26.959Z,0.93
2018-04-14T14:44:55.605Z,1.23
2018-04-14T14:47:24.305Z,1.10
2018-04-14T14:49:58.589Z,0.80
2018-04-14T14:52:27.068Z,0.70
2018-04-14T14:54:55.884Z,1.87
2018-04-14T14:57:24.360Z,1.00
2018-04-14T14:59:53.021Z,1.20
2018-04-14T15:02:21.523Z,0.90
2018-04-14T15:04:50.169Z,1.10
2018-04-14T15:07:19.668Z,1.60
2018-04-14T15:09:49.145Z,1.57
2018-04-14T15:12:18.642Z,1.63
2018-04-14T15:14:48.175Z,1.73
2018-04-14T15:17:17.788Z,3.43
2018-04-14T15:19:47.274Z,3.40
2018-04-14T15:22:16.765Z,1.50
2018-04-14T15:24:46.277Z,1.37
2018-04-14T15:27:15.886Z,1.37
2018-04-14T15:29:44.410Z,1.40
2018-04-14T15:32:12.900Z,2.33
2018-04-14T15:34:41.457Z,1.50
2018-04-14T15:37:11.097Z,2.23
2018-04-14T15:39:40.609Z,1.80
2018-04-14T15:42:10.092Z,1.67
2018-04-14T15:44:39.585Z,2.17
2018-04-14T15:47:09.069Z,1.60
2018-04-14T15:49:38.552Z,2.00
2018-04-14T15:52:08.055Z,1.63
2018-04-14T15:54:37.602Z,1.43
2018-04-14T15:57:07.103Z,1.53
2018-04-14T15:59:36.588Z,1.80
2018-04-14T16:02:06.081Z,1.53
2018-04-14T16:04:35.589Z,1.97
2018-04-14T16:07:05.280Z,2.27
2018-04-14T16:09:34.756Z,2.80
2018-04-14T16:12:04.282Z,1.80
2018-04-14T16:14:33.774Z,2.63
2018-04-14T16:17:03.339Z,1.73
2018-04-14T16:19:33.014Z,2.30
2018-04-14T16:22:02.280Z,1.80
2018-04-14T16:24:31.793Z,1.87
2018-04-14T16:27:01.300Z,3.40
2018-04-14T16:29:30.808Z,1.80
2018-04-14T16:32:00.286Z,1.90
2018-04-14T16:34:29.808Z,1.83
2018-04-14T16:36:59.296Z,1.87
2018-04-14T16:39:28.785Z,1.80
2018-04-14T16:41:58.312Z,2.83
2018-04-14T16:44:27.880Z,2.40
2018-04-14T16:46:57.416Z,1.90
2018-04-14T16:49:26.940Z,1.50
2018-04-14T16:51:56.599Z,2.80
2018-04-14T16:54:26.080Z,6.50
2018-04-14T16:56:55.676Z,1.73
2018-04-14T16:59:25.252Z,2.30
2018-04-14T17:01:54.748Z,2.60
2018-04-14T17:04:24.252Z,2.67
2018-04-14T17:06:53.726Z,4.50
2018-04-14T17:09:22.980Z,2.30
2018-04-14T17:11:52.468Z,3.60
2018-04-14T17:14:21.980Z,2.63
2018-04-14T17:16:51.485Z,2.47
2018-04-14T17:19:20.996Z,3.23
2018-04-14T17:21:50.480Z,2.70
2018-04-14T17:24:19.979Z,3.47
2018-04-14T17:26:49.512Z,2.60
2018-04-14T17:29:18.992Z,3.30
2018-04-14T17:31:48.500Z,3.30
2018-04-14T17:34:17.975Z,3.80
2018-04-14T17:36:47.513Z,3.13
2018-04-14T17:39:16.963Z,3.53
2018-04-14T17:41:46.464Z,4.60
2018-04-14T17:44:15.983Z,3.97
2018-04-14T17:46:45.677Z,3.60
2018-04-14T17:49:15.163Z,3.43
2018-04-14T17:51:44.681Z,5.30
2018-04-14T17:54:14.195Z,4.40
2018-04-14T17:56:43.689Z,3.80
2018-04-14T17:59:13.223Z,3.70
2018-04-14T18:01:42.480Z,3.20
2018-04-14T18:04:11.993Z,3.63
2018-04-14T18:06:41.476Z,7.97
2018-04-14T18:09:11.040Z,4.07
2018-04-14T18:11:40.662Z,4.03
2018-04-14T18:14:10.157Z,3.80
2018-04-14T18:16:39.849Z,3.43
2018-04-14T18:19:09.328Z,3.40
2018-04-14T18:21:38.817Z,4.10
2018-04-14T18:24:08.373Z,4.73
2018-04-14T18:26:37.911Z,6.57
2018-04-14T18:29:07.484Z,13.50
2018-04-14T18:31:36.977Z,5.70
2018-04-14T18:34:06.478Z,8.07
2018-04-14T18:36:36.008Z,12.33
2018-04-14T18:39:06.021Z,5.30
2018-04-14T18:41:34.526Z,4.53
2018-04-14T18:44:03.003Z,5.13
2018-04-14T18:46:31.513Z,7.30
2018-04-14T18:49:00.769Z,6.93
2018-04-14T18:51:29.274Z,4.50
2018-04-14T18:53:57.775Z,4.50
2018-04-14T18:56:27.025Z,5.23
2018-04-14T18:58:55.731Z,7.40
2018-04-14T19:01:24.224Z,5.50
2018-04-14T19:03:52.732Z,5.17
2018-04-14T19:06:22.008Z,5.80
2018-04-14T19:08:50.505Z,5.40
2018-04-14T19:11:19.038Z,4.60
2018-04-14T19:13:47.534Z,4.70
2018-04-14T19:16:16.025Z,5.47
2018-04-14T19:18:44.525Z,4.83
2018-04-14T19:21:13.033Z,4.30
2018-04-14T19:23:42.307Z,5.00
2018-04-14T19:26:10.809Z,3.60
2018-04-14T19:28:39.299Z,4.13
2018-04-14T19:31:08.582Z,6.33
2018-04-14T19:33:37.058Z,6.07
2018-04-14T19:36:06.382Z,6.00
2018-04-14T19:38:34.893Z,6.80
2018-04-14T19:41:03.425Z,6.97
2018-04-14T19:43:31.929Z,6.97
2018-04-14T19:46:00.614Z,8.17
2018-04-14T19:48:29.129Z,11.50
2018-04-14T19:50:57.662Z,10.60
2018-04-14T19:53:26.157Z,9.70
2018-04-14T19:55:54.638Z,9.03
2018-04-14T19:58:23.155Z,8.33
2018-04-14T20:00:51.662Z,9.30
2018-04-14T20:03:20.165Z,10.27
2018-04-14T20:05:48.652Z,10.27
2018-04-14T20:08:17.165Z,12.17
2018-04-14T20:10:45.669Z,20.60
2018-04-14T20:13:14.954Z,16.70
2018-04-14T20:15:43.619Z,15.47
2018-04-14T20:18:12.226Z,21.10
2018-04-14T20:20:41.568Z,14.93
2018-04-14T20:23:10.102Z,22.37
2018-04-14T20:25:38.590Z,18.73
2018-04-14T20:28:07.081Z,30.80
2018-04-14T20:30:36.401Z,42.07
2018-04-14T20:33:04.920Z,18.27
2018-04-14T20:35:33.426Z,14.20
2018-04-14T20:38:01.905Z,12.00
2018-04-14T20:40:30.417Z,9.37
2018-04-14T20:42:59.685Z,9.47
2018-04-14T20:45:28.177Z,10.13
2018-04-14T20:47:56.721Z,8.63
2018-04-14T20:50:25.237Z,8.07
2018-04-14T20:52:53.709Z,7.10
2018-04-14T20:55:22.198Z,13.23
2018-04-14T20:57:50.677Z,8.20
2018-04-14T21:00:19.230Z,9.40
2018-04-14T21:02:47.719Z,16.50
2018-04-14T21:05:16.201Z,14.73
2018-04-14T21:07:44.702Z,11.80
2018-04-14T21:10:13.260Z,12.37
2018-04-14T21:12:41.767Z,11.67
2018-04-14T21:15:10.394Z,9.27
2018-04-14T21:17:39.689Z,11.80
2018-04-14T21:20:08.169Z,9.60
2018-04-14T21:22:37.234Z,7.20
2018-04-14T21:25:05.717Z,8.23
2018-04-14T21:27:34.289Z,8.20
2018-04-14T21:30:02.773Z,9.53
2018-04-14T21:32:31.453Z,7.53
2018-04-14T21:34:59.943Z,8.17
2018-04-14T21:37:28.949Z,9.17
2018-04-14T21:39:57.224Z,10.67
2018-04-14T21:42:25.709Z,8.80
2018-04-14T21:44:54.188Z,8.80
2018-04-14T21:47:22.517Z,8.67
2018-04-14T21:49:51.780Z,8.07
2018-04-14T21:52:20.265Z,7.97
2018-04-14T21:54:49.661Z,9.80
2018-04-14T21:57:18.160Z,13.10
2018-04-14T21:59:46.685Z,12.40
2018-04-14T22:02:15.299Z,10.43
2018-04-14T22:04:43.798Z,8.63
2018-04-14T22:07:12.269Z,9.63
2018-04-14T22:09:40.749Z,9.87
2018-04-14T22:12:08.920Z,9.73
2018-04-14T22:14:37.145Z,10.77
2018-04-14T22:17:05.754Z,10.87
2018-04-14T22:19:34.219Z,10.93
2018-04-14T22:22:03.482Z,9.37
2018-04-14T22:24:31.941Z,9.97
2018-04-14T22:27:00.436Z,8.70
2018-04-14T22:29:28.913Z,13.80
2018-04-14T22:31:57.485Z,10.93
2018-04-14T22:34:25.962Z,16.20
2018-04-14T22:36:54.468Z,10.87
2018-04-14T22:39:23.040Z,15.50
2018-04-14T22:41:51.521Z,11.20
2018-04-14T22:44:20.129Z,9.50
2018-04-14T22:46:48.616Z,10.70
2018-04-14T22:49:17.110Z,10.73
2018-04-14T22:51:45.613Z,10.03
2018-04-14T22:54:14.114Z,9.93
2018-04-14T22:56:43.545Z,12.70
2018-04-14T22:59:12.226Z,10.50
2018-04-14T23:01:40.708Z,10.70
2018-04-14T23:04:09.213Z,9.80
2018-04-14T23:06:37.765Z,12.40
2018-04-14T23:09:06.502Z,11.80
2018-04-14T23:11:34.997Z,12.57
2018-04-14T23:14:04.396Z,11.17
2018-04-14T23:16:32.954Z,10.10
2018-04-14T23:19:01.437Z,12.37
2018-04-14T23:21:29.926Z,10.27
2018-04-14T23:23:58.524Z,9.07
2018-04-14T23:26:27.069Z,10.57
2018-04-14T23:28:55.553Z,10.90
2018-04-14T23:31:24.057Z,10.33
2018-04-14T23:33:52.573Z,13.00
2018-04-14T23:36:21.217Z,9.30
2018-04-14T23:38:49.693Z,11.73
2018-04-14T23:41:18.185Z,9.27
2018-04-14T23:43:46.669Z,9.93
2018-04-14T23:46:15.148Z,13.70
2018-04-14T23:48:43.661Z,10.10
2018-04-14T23:51:12.157Z,10.07
2018-04-14T23:53:41.503Z,10.97
2018-04-14T23:56:09.953Z,9.10
2018-04-14T23:58:39.189Z,9.40
